createdAt,value
2018-08-20T00:01:30.239Z,9.50
2018-08-20T00:04:02.245Z,10.20
2018-08-20T00:06:41.186Z,9.70
2018-08-20T00:09:09.799Z,9.70
2018-08-20T00:11:38.384Z,9.30
2018-08-20T00:14:06.923Z,9.07
2018-08-20T00:16:35.503Z,9.80
2018-08-20T00:19:04.140Z,9.43
2018-08-20T00:21:32.712Z,9.07
2018-08-20T00:24:01.259Z,9.77
2018-08-20T00:26:29.823Z,9.67
2018-08-20T00:28:58.395Z,14.73
2018-08-20T00:31:26.995Z,11.50
2018-08-20T00:33:55.525Z,9.53
2018-08-20T00:36:24.116Z,13.90
2018-08-20T00:38:52.655Z,9.63
2018-08-20T00:41:21.222Z,9.30
2018-08-20T00:43:49.822Z,9.57
2018-08-20T00:46:18.399Z,9.40
2018-08-20T00:48:46.970Z,9.93
2018-08-20T00:51:15.577Z,10.10
2018-08-20T00:53:44.155Z,10.63
2018-08-20T00:56:12.712Z,11.13
2018-08-20T00:58:41.262Z,9.57
2018-08-20T01:01:09.844Z,11.80
2018-08-20T01:03:38.432Z,9.50
2018-08-20T01:06:07.000Z,10.60
2018-08-20T01:08:35.606Z,10.57
2018-08-20T01:11:04.192Z,12.77
2018-08-20T01:13:32.742Z,12.97
2018-08-20T01:16:01.296Z,12.17
2018-08-20T01:18:30.050Z,11.73
2018-08-20T01:20:58.641Z,14.20
2018-08-20T01:23:27.258Z,10.00
2018-08-20T01:25:55.922Z,10.53
2018-08-20T01:28:24.472Z,12.70
2018-08-20T01:30:53.036Z,12.80
2018-08-20T01:33:23.402Z,9.90
2018-08-20T01:35:51.932Z,9.60
2018-08-20T01:38:20.539Z,10.40
2018-08-20T01:40:49.111Z,10.83
2018-08-20T01:43:17.638Z,12.00
2018-08-20T01:45:46.264Z,11.70
2018-08-20T01:48:14.811Z,10.67
2018-08-20T01:50:43.362Z,12.27
2018-08-20T01:53:11.930Z,14.50
2018-08-20T01:55:40.491Z,10.60
2018-08-20T01:58:09.083Z,9.77
2018-08-20T02:00:37.624Z,10.43
2018-08-20T02:03:06.262Z,10.53
2018-08-20T02:05:34.919Z,13.27
2018-08-20T02:08:03.562Z,12.47
2018-08-20T02:10:32.197Z,10.67
2018-08-20T02:13:00.753Z,10.13
2018-08-20T02:15:29.346Z,8.83
2018-08-20T02:17:57.968Z,11.60
2018-08-20T02:20:26.535Z,8.87
2018-08-20T02:22:55.085Z,10.40
2018-08-20T02:25:23.698Z,11.23
2018-08-20T02:27:52.254Z,10.53
2018-08-20T02:30:20.810Z,9.53
2018-08-20T02:32:49.376Z,10.30
2018-08-20T02:35:18.044Z,11.90
2018-08-20T02:37:47.805Z,9.90
2018-08-20T02:40:17.727Z,10.90
2018-08-20T02:42:46.540Z,10.53
2018-08-20T02:45:17.191Z,10.40
2018-08-20T02:47:46.143Z,9.63
2018-08-20T02:50:15.772Z,11.53
2018-08-20T02:52:45.019Z,10.60
2018-08-20T02:55:14.040Z,9.47
2018-08-20T02:57:42.613Z,10.47
2018-08-20T03:00:13.453Z,11.10
2018-08-20T03:02:42.104Z,10.17
2018-08-20T03:05:12.020Z,10.60
2018-08-20T03:07:40.575Z,11.97
2018-08-20T03:10:11.313Z,16.07
2018-08-20T03:12:39.979Z,10.60
2018-08-20T03:15:09.695Z,11.30
2018-08-20T03:17:38.254Z,11.23
2018-08-20T03:20:07.094Z,10.80
2018-08-20T03:22:35.708Z,10.77
2018-08-20T03:25:04.833Z,11.00
2018-08-20T03:27:33.421Z,11.20
2018-08-20T03:30:02.006Z,11.97
2018-08-20T03:32:30.604Z,10.90
2018-08-20T03:34:59.234Z,10.33
2018-08-20T03:37:27.815Z,11.17
2018-08-20T03:39:56.419Z,10.90
2018-08-20T03:42:25.008Z,11.27
2018-08-20T03:44:53.579Z,11.77
2018-08-20T03:47:22.331Z,9.93
2018-08-20T03:49:51.261Z,10.10
2018-08-20T03:52:19.924Z,10.10
2018-08-20T03:54:48.544Z,11.50
2018-08-20T03:57:17.094Z,9.67
2018-08-20T03:59:45.684Z,10.53
2018-08-20T04:02:14.255Z,10.63
2018-08-20T04:04:42.797Z,11.03
2018-08-20T04:07:12.053Z,10.13
2018-08-20T04:09:40.605Z,10.20
2018-08-20T04:12:09.237Z,11.43
2018-08-20T04:14:37.781Z,11.00
2018-08-20T04:17:06.432Z,10.40
2018-08-20T04:19:35.023Z,10.03
2018-08-20T04:22:03.594Z,10.30
2018-08-20T04:24:32.155Z,14.57
2018-08-20T04:27:00.680Z,12.27
2018-08-20T04:29:29.252Z,10.10
2018-08-20T04:31:57.885Z,9.60
2018-08-20T04:34:26.437Z,10.30
2018-08-20T04:36:55.019Z,19.13
2018-08-20T04:39:23.627Z,11.97
2018-08-20T04:41:52.230Z,9.43
2018-08-20T04:44:20.819Z,9.33
2018-08-20T04:46:49.381Z,10.50
2018-08-20T04:49:17.953Z,9.53
2018-08-20T04:51:46.509Z,9.67
2018-08-20T04:54:15.143Z,9.33
2018-08-20T04:56:43.687Z,9.20
2018-08-20T04:59:12.401Z,8.67
2018-08-20T05:01:40.975Z,11.53
2018-08-20T05:04:09.596Z,10.63
2018-08-20T05:06:38.240Z,8.70
2018-08-20T05:09:07.392Z,10.37
2018-08-20T05:11:36.038Z,8.93
2018-08-20T05:14:04.701Z,7.83
2018-08-20T05:16:33.256Z,8.53
2018-08-20T05:19:01.935Z,8.00
2018-08-20T05:21:30.463Z,8.33
2018-08-20T05:23:59.053Z,18.33
2018-08-20T05:26:27.593Z,12.50
2018-08-20T05:28:56.195Z,9.10
2018-08-20T05:31:24.789Z,9.03
2018-08-20T05:33:53.391Z,14.37
2018-08-20T05:36:21.995Z,11.87
2018-08-20T05:38:50.570Z,20.33
2018-08-20T05:41:19.152Z,15.13
2018-08-20T05:43:47.713Z,21.40
2018-08-20T05:46:16.330Z,15.83
2018-08-20T05:48:44.919Z,9.50
2018-08-20T05:51:13.502Z,8.93
2018-08-20T05:53:42.085Z,13.53
2018-08-20T05:56:10.668Z,10.80
2018-08-20T05:58:39.240Z,8.67
2018-08-20T06:01:07.874Z,12.13
2018-08-20T06:03:36.487Z,8.37
2018-08-20T06:06:05.119Z,10.50
2018-08-20T06:08:33.683Z,17.63
2018-08-20T06:11:02.335Z,11.23
2018-08-20T06:13:30.905Z,12.80
2018-08-20T06:15:59.486Z,9.03
2018-08-20T06:18:28.127Z,12.63
2018-08-20T06:20:56.743Z,12.20
2018-08-20T06:23:25.313Z,9.93
2018-08-20T06:25:53.898Z,10.60
2018-08-20T06:28:22.489Z,16.27
2018-08-20T06:30:51.079Z,16.43
2018-08-20T06:33:19.618Z,10.00
2018-08-20T06:35:48.215Z,13.00
2018-08-20T06:38:16.818Z,17.80
2018-08-20T06:40:45.406Z,15.23
2018-08-20T06:43:13.996Z,12.37
2018-08-20T06:45:42.570Z,17.10
2018-08-20T06:48:11.203Z,11.07
2018-08-20T06:50:39.815Z,12.77
2018-08-20T06:53:08.345Z,12.50
2018-08-20T06:55:36.936Z,15.77
2018-08-20T06:58:05.617Z,10.53
2018-08-20T07:00:34.270Z,10.87
2018-08-20T07:03:02.890Z,14.20
2018-08-20T07:05:31.457Z,12.67
2018-08-20T07:08:00.027Z,9.73
2018-08-20T07:10:33.901Z,11.50
2018-08-20T07:13:13.713Z,11.63
2018-08-20T07:15:42.284Z,16.07
2018-08-20T07:18:10.927Z,14.13
2018-08-20T07:20:39.469Z,25.70
2018-08-20T07:23:08.153Z,12.30
2018-08-20T07:25:36.644Z,13.10
2018-08-20T07:28:05.240Z,16.60
2018-08-20T07:30:33.809Z,15.47
2018-08-20T07:33:02.432Z,14.50
2018-08-20T07:35:30.969Z,13.83
2018-08-20T07:37:59.565Z,17.40
2018-08-20T07:40:28.144Z,14.70
2018-08-20T07:42:56.847Z,14.30
2018-08-20T07:45:25.442Z,13.80
2018-08-20T07:47:54.037Z,14.00
2018-08-20T07:50:22.723Z,10.43
2018-08-20T07:52:51.316Z,16.37
2018-08-20T07:55:19.899Z,17.40
2018-08-20T07:57:48.521Z,22.73
2018-08-20T08:00:17.116Z,18.40
2018-08-20T08:02:45.666Z,19.17
2018-08-20T08:05:14.313Z,12.93
2018-08-20T08:07:42.895Z,15.10
2018-08-20T08:10:16.419Z,15.50
2018-08-20T08:12:45.102Z,19.97
2018-08-20T08:15:14.902Z,21.33
2018-08-20T08:17:44.983Z,21.33
2018-08-20T08:20:14.546Z,18.30
2018-08-20T08:22:43.522Z,14.97
2018-08-20T08:25:12.172Z,16.27
2018-08-20T08:27:40.768Z,16.93
2018-08-20T08:30:12.770Z,14.50
2018-08-20T08:32:41.433Z,16.50
2018-08-20T08:35:10.564Z,16.93
2018-08-20T08:37:39.663Z,16.43
2018-08-20T08:40:09.059Z,13.23
2018-08-20T08:42:37.604Z,14.53
2018-08-20T08:45:08.831Z,14.60
2018-08-20T08:47:37.447Z,17.03
2018-08-20T08:50:06.066Z,15.30
2018-08-20T08:52:34.635Z,11.13
2018-08-20T08:55:03.199Z,16.33
2018-08-20T08:57:31.785Z,18.20
2018-08-20T09:00:00.358Z,13.70
2018-08-20T09:02:28.905Z,10.77
2018-08-20T09:04:57.461Z,16.03
2018-08-20T09:07:26.009Z,12.50
2018-08-20T09:09:54.585Z,20.53
2018-08-20T09:12:23.127Z,12.43
2018-08-20T09:14:51.681Z,14.83
2018-08-20T09:17:20.224Z,14.77
2018-08-20T09:19:48.761Z,12.80
2018-08-20T09:22:18.434Z,13.83
2018-08-20T09:24:46.968Z,17.70
2018-08-20T09:27:15.517Z,11.50
2018-08-20T09:29:44.082Z,15.43
2018-08-20T09:32:12.671Z,12.83
2018-08-20T09:34:41.212Z,11.47
2018-08-20T09:37:09.883Z,13.53
2018-08-20T09:39:38.471Z,11.50
2018-08-20T09:42:07.119Z,20.80
2018-08-20T09:44:35.703Z,12.63
2018-08-20T09:47:04.394Z,14.20
2018-08-20T09:49:32.922Z,10.20
2018-08-20T09:52:01.509Z,12.57
2018-08-20T09:54:30.062Z,13.13
2018-08-20T09:56:58.768Z,15.00
2018-08-20T09:59:27.311Z,12.97
2018-08-20T10:01:55.855Z,13.63
2018-08-20T10:04:24.443Z,10.60
2018-08-20T10:06:52.979Z,16.93
2018-08-20T10:09:22.440Z,8.63
2018-08-20T10:11:50.975Z,12.83
2018-08-20T10:14:19.564Z,10.10
2018-08-20T10:16:48.119Z,10.07
2018-08-20T10:19:16.645Z,8.80
2018-08-20T10:21:45.368Z,13.53
2018-08-20T10:24:13.933Z,20.20
2018-08-20T10:26:42.515Z,8.43
2018-08-20T10:29:11.163Z,12.67
2018-08-20T10:31:39.715Z,17.40
2018-08-20T10:34:08.275Z,10.30
2018-08-20T10:36:36.871Z,8.80
2018-08-20T10:39:07.674Z,7.80
2018-08-20T10:41:36.215Z,10.13
2018-08-20T10:44:04.839Z,9.00
2018-08-20T10:46:33.391Z,9.63
2018-08-20T10:49:01.906Z,8.67
2018-08-20T10:51:30.473Z,14.03
2018-08-20T10:53:59.042Z,10.40
2018-08-20T10:56:29.772Z,9.23
2018-08-20T10:58:58.432Z,11.13
2018-08-20T11:01:27.060Z,11.13
2018-08-20T11:03:58.693Z,8.30
2018-08-20T11:06:28.526Z,9.27
2018-08-20T11:08:57.734Z,16.30
2018-08-20T11:11:27.847Z,10.50
2018-08-20T11:13:58.444Z,10.50
2018-08-20T11:16:27.001Z,10.40
2018-08-20T11:18:55.542Z,8.70
2018-08-20T11:21:24.091Z,11.47
2018-08-20T11:23:52.740Z,7.63
2018-08-20T11:26:21.265Z,9.40
2018-08-20T11:28:49.815Z,7.70
2018-08-20T11:31:18.387Z,7.33
2018-08-20T11:33:46.904Z,15.87
2018-08-20T11:36:15.448Z,13.70
2018-08-20T11:38:43.989Z,8.40
2018-08-20T11:41:12.531Z,11.20
2018-08-20T11:43:41.050Z,9.30
2018-08-20T11:46:09.879Z,7.40
2018-08-20T11:48:38.422Z,9.60
2018-08-20T11:51:07.669Z,12.10
2018-08-20T11:53:36.237Z,10.77
2018-08-20T11:56:05.065Z,7.70
2018-08-20T11:58:33.585Z,8.40
2018-08-20T12:01:02.230Z,13.73
2018-08-20T12:03:31.443Z,14.30
2018-08-20T12:06:00.459Z,9.00
2018-08-20T12:08:29.070Z,8.13
2018-08-20T12:10:57.717Z,18.13
2018-08-20T12:13:26.318Z,11.10
2018-08-20T12:15:54.863Z,15.03
2018-08-20T12:18:23.404Z,12.77
2018-08-20T12:20:51.907Z,7.50
2018-08-20T12:23:20.512Z,9.43
2018-08-20T12:25:49.012Z,9.13
2018-08-20T12:28:17.566Z,9.30
2018-08-20T12:30:46.117Z,13.90
2018-08-20T12:33:14.653Z,9.53
2018-08-20T12:35:43.177Z,10.17
2018-08-20T12:38:11.700Z,9.27
2018-08-20T12:40:40.269Z,8.77
2018-08-20T12:43:08.819Z,13.93
2018-08-20T12:45:37.352Z,18.30
2018-08-20T12:48:05.886Z,18.33
2018-08-20T12:50:34.503Z,16.50
2018-08-20T12:53:03.115Z,13.90
2018-08-20T12:55:31.618Z,12.47
2018-08-20T12:58:00.167Z,12.47
2018-08-20T13:00:28.719Z,11.20
2018-08-20T13:02:57.301Z,10.40
2018-08-20T13:05:25.851Z,19.40
2018-08-20T13:07:54.359Z,20.20
2018-08-20T13:10:22.923Z,16.63
2018-08-20T13:12:51.483Z,15.03
2018-08-20T13:15:20.084Z,11.03
2018-08-20T13:17:48.634Z,12.40
2018-08-20T13:20:17.173Z,16.00
2018-08-20T13:22:45.690Z,14.83
2018-08-20T13:25:14.246Z,10.70
2018-08-20T13:27:42.791Z,10.90
2018-08-20T13:30:11.421Z,11.87
2018-08-20T13:32:39.986Z,10.93
2018-08-20T13:35:08.834Z,17.50
2018-08-20T13:37:37.707Z,10.47
2018-08-20T13:40:06.687Z,11.60
2018-08-20T13:42:35.238Z,9.63
2018-08-20T13:45:04.014Z,10.27
2018-08-20T13:47:32.588Z,8.57
2018-08-20T13:50:05.386Z,13.03
2018-08-20T13:52:34.414Z,9.63
2018-08-20T13:55:02.939Z,14.03
2018-08-20T13:57:35.740Z,9.27
2018-08-20T14:00:04.905Z,13.17
2018-08-20T14:02:33.411Z,11.43
2018-08-20T14:05:01.996Z,9.70
2018-08-20T14:07:30.967Z,16.63
2018-08-20T14:09:59.504Z,9.20
2018-08-20T14:12:28.051Z,11.80
2018-08-20T14:14:56.590Z,11.93
2018-08-20T14:17:25.128Z,9.17
2018-08-20T14:19:53.793Z,12.97
2018-08-20T14:22:22.351Z,11.20
2018-08-20T14:24:50.942Z,11.10
2018-08-20T14:27:19.600Z,8.77
2018-08-20T14:29:48.174Z,7.97
2018-08-20T14:32:16.732Z,8.70
2018-08-20T14:34:45.285Z,14.77
2018-08-20T14:37:13.883Z,9.83
2018-08-20T14:39:42.414Z,12.07
2018-08-20T14:42:11.012Z,11.03
2018-08-20T14:44:39.560Z,8.77
2018-08-20T14:47:08.076Z,8.67
2018-08-20T14:49:36.603Z,11.50
2018-08-20T14:52:05.255Z,12.30
2018-08-20T14:54:33.796Z,8.63
2018-08-20T14:57:02.355Z,10.50
2018-08-20T14:59:30.916Z,11.20
2018-08-20T15:01:59.490Z,6.23
2018-08-20T15:04:28.051Z,9.60
2018-08-20T15:07:02.241Z,5.73
2018-08-20T15:09:31.280Z,7.83
2018-08-20T15:12:00.150Z,18.13
2018-08-20T15:14:28.673Z,7.37
2018-08-20T15:16:57.247Z,6.73
2018-08-20T15:19:25.769Z,6.80
2018-08-20T15:21:54.359Z,5.63
2018-08-20T15:24:23.700Z,6.20
2018-08-20T15:26:52.251Z,11.43
2018-08-20T15:29:21.059Z,6.87
2018-08-20T15:31:49.656Z,20.63
2018-08-20T15:34:18.188Z,9.10
2018-08-20T15:36:46.758Z,4.90
2018-08-20T15:39:15.395Z,8.83
2018-08-20T15:41:43.976Z,5.30
2018-08-20T15:44:12.558Z,5.10
2018-08-20T15:46:41.096Z,5.90
2018-08-20T15:49:09.620Z,4.50
2018-08-20T15:51:38.168Z,9.20
2018-08-20T15:54:06.853Z,6.30
2018-08-20T15:56:35.408Z,12.10
2018-08-20T15:59:04.032Z,4.00
2018-08-20T16:01:32.661Z,11.53
2018-08-20T16:04:01.189Z,4.53
2018-08-20T16:06:29.742Z,7.87
2018-08-20T16:08:58.307Z,5.13
2018-08-20T16:11:26.856Z,4.37
2018-08-20T16:13:55.431Z,5.03
2018-08-20T16:16:23.940Z,4.70
2018-08-20T16:18:52.483Z,5.83
2018-08-20T16:21:21.023Z,7.17
2018-08-20T16:23:49.566Z,10.80
2018-08-20T16:26:18.106Z,10.43
2018-08-20T16:28:46.662Z,4.77
2018-08-20T16:31:15.236Z,8.20
2018-08-20T16:33:43.785Z,4.37
2018-08-20T16:36:12.392Z,5.90
2018-08-20T16:38:40.973Z,5.07
2018-08-20T16:41:09.513Z,9.10
2018-08-20T16:43:38.078Z,4.00
2018-08-20T16:46:06.703Z,4.10
2018-08-20T16:48:36.183Z,5.70
2018-08-20T16:51:04.898Z,7.83
2018-08-20T16:53:33.491Z,4.70
2018-08-20T16:56:02.144Z,6.47
2018-08-20T16:58:30.748Z,4.23
2018-08-20T17:00:59.344Z,11.17
2018-08-20T17:03:28.923Z,3.93
2018-08-20T17:05:57.624Z,6.53
2018-08-20T17:08:30.611Z,4.20
2018-08-20T17:10:59.208Z,3.63
2018-08-20T17:13:27.771Z,4.30
2018-08-20T17:15:57.333Z,4.13
2018-08-20T17:18:25.869Z,3.00
2018-08-20T17:20:54.501Z,3.40
2018-08-20T17:23:24.354Z,3.37
2018-08-20T17:25:57.887Z,3.47
2018-08-20T17:28:27.656Z,3.87
2018-08-20T17:30:58.859Z,3.73
2018-08-20T17:33:31.656Z,5.43
2018-08-20T17:36:00.265Z,8.00
2018-08-20T17:38:28.893Z,4.27
2018-08-20T17:40:58.519Z,4.60
2018-08-20T17:43:27.076Z,5.40
2018-08-20T17:45:56.811Z,3.20
2018-08-20T17:48:30.152Z,6.00
2018-08-20T17:50:59.108Z,3.60
2018-08-20T17:53:38.713Z,3.83
2018-08-20T17:56:07.307Z,7.20
2018-08-20T17:58:35.871Z,7.10
2018-08-20T18:01:04.889Z,5.30
2018-08-20T18:03:36.340Z,6.63
2018-08-20T18:06:09.442Z,13.20
2018-08-20T18:08:38.211Z,3.33
2018-08-20T18:11:07.833Z,3.47
2018-08-20T18:13:41.326Z,6.23
2018-08-20T18:16:12.063Z,3.27
2018-08-20T18:18:42.143Z,3.63
2018-08-20T18:21:10.846Z,4.93
2018-08-20T18:23:39.437Z,3.50
2018-08-20T18:26:08.289Z,3.40
2018-08-20T18:28:43.192Z,4.10
2018-08-20T18:31:18.077Z,4.03
2018-08-20T18:33:46.840Z,8.83
2018-08-20T18:36:19.629Z,3.43
2018-08-20T18:38:56.048Z,3.57
2018-08-20T18:41:42.371Z,3.57
2018-08-20T18:44:10.981Z,5.13
2018-08-20T18:46:39.499Z,4.87
2018-08-20T18:49:08.060Z,7.03
2018-08-20T18:51:36.681Z,3.30
2018-08-20T18:54:05.320Z,3.70
2018-08-20T18:56:33.969Z,3.83
2018-08-20T18:59:06.203Z,3.67
2018-08-20T19:01:34.845Z,5.20
2018-08-20T19:04:03.407Z,5.73
2018-08-20T19:06:31.953Z,3.93
2018-08-20T19:09:00.549Z,7.70
2018-08-20T19:11:29.143Z,5.80
2018-08-20T19:14:01.926Z,4.60
2018-08-20T19:16:38.010Z,3.93
2018-08-20T19:19:07.739Z,3.63
2018-08-20T19:21:40.179Z,7.80
2018-08-20T19:24:09.494Z,21.87
2018-08-20T19:26:38.125Z,8.53
2018-08-20T19:29:26.741Z,4.77
2018-08-20T19:31:55.526Z,3.80
2018-08-20T19:34:24.050Z,6.20
2018-08-20T19:36:52.637Z,3.40
2018-08-20T19:39:21.173Z,5.60
2018-08-20T19:41:50.146Z,3.60
2018-08-20T19:44:18.738Z,3.10
2018-08-20T19:46:47.356Z,3.97
2018-08-20T19:49:16.340Z,3.47
2018-08-20T19:51:45.767Z,4.10
2018-08-20T19:54:15.812Z,3.83
2018-08-20T19:56:44.467Z,3.33
2018-08-20T19:59:13.776Z,5.83
2018-08-20T20:01:42.506Z,3.40
2018-08-20T20:04:14.548Z,5.10
2018-08-20T20:06:44.769Z,6.63
2018-08-20T20:09:13.337Z,3.97
2018-08-20T20:11:47.452Z,4.53
2018-08-20T20:14:15.993Z,3.73
2018-08-20T20:16:49.750Z,3.27
2018-08-20T20:19:18.941Z,3.00
2018-08-20T20:21:47.510Z,6.13
2018-08-20T20:24:16.109Z,3.70
2018-08-20T20:26:44.740Z,4.53
2018-08-20T20:29:13.468Z,5.30
2018-08-20T20:31:42.833Z,10.03
2018-08-20T20:34:11.622Z,3.30
2018-08-20T20:36:40.379Z,5.70
2018-08-20T20:39:10.353Z,3.93
2018-08-20T20:41:38.990Z,4.70
2018-08-20T20:44:08.574Z,3.50
2018-08-20T20:46:37.134Z,5.63
2018-08-20T20:49:05.786Z,5.83
2018-08-20T20:51:34.330Z,4.57
2018-08-20T20:54:02.906Z,2.93
2018-08-20T20:56:31.466Z,4.90
2018-08-20T20:59:00.026Z,3.00
2018-08-20T21:01:28.584Z,2.63
2018-08-20T21:03:57.164Z,2.80
2018-08-20T21:06:26.691Z,3.43
2018-08-20T21:08:55.383Z,3.00
2018-08-20T21:11:23.951Z,3.03
2018-08-20T21:13:52.478Z,3.03
2018-08-20T21:16:24.222Z,7.60
2018-08-20T21:18:54.684Z,2.67
2018-08-20T21:21:23.690Z,7.93
2018-08-20T21:23:52.358Z,4.17
2018-08-20T21:26:21.007Z,2.80
2018-08-20T21:28:50.889Z,2.73
2018-08-20T21:31:20.790Z,3.87
2018-08-20T21:33:53.920Z,5.33
2018-08-20T21:36:22.584Z,2.93
2018-08-20T21:38:51.203Z,4.07
2018-08-20T21:41:28.525Z,3.40
2018-08-20T21:43:57.114Z,3.33
2018-08-20T21:46:25.690Z,3.30
2018-08-20T21:48:54.293Z,3.40
2018-08-20T21:51:28.235Z,4.20
2018-08-20T21:53:56.892Z,4.07
2018-08-20T21:56:29.909Z,2.80
2018-08-20T21:58:58.579Z,5.17
2018-08-20T22:01:27.147Z,2.73
2018-08-20T22:03:55.833Z,4.80
2018-08-20T22:06:24.390Z,3.40
2018-08-20T22:08:52.934Z,3.60
2018-08-20T22:11:21.467Z,4.83
2018-08-20T22:13:50.005Z,5.80
2018-08-20T22:16:21.322Z,2.30
2018-08-20T22:18:54.047Z,2.60
2018-08-20T22:21:22.683Z,2.33
2018-08-20T22:23:51.418Z,5.03
2018-08-20T22:26:21.396Z,2.30
2018-08-20T22:28:51.471Z,8.50
2018-08-20T22:31:20.488Z,4.27
2018-08-20T22:33:58.283Z,3.23
2018-08-20T22:36:27.892Z,4.67
2018-08-20T22:38:58.561Z,3.40
2018-08-20T22:41:28.371Z,3.53
2018-08-20T22:43:57.020Z,3.67
2018-08-20T22:46:26.043Z,2.53
2018-08-20T22:48:56.817Z,4.57
2018-08-20T22:51:26.433Z,2.90
2018-08-20T22:53:58.489Z,6.23
2018-08-20T22:56:32.847Z,6.50
2018-08-20T22:59:04.913Z,3.40
2018-08-20T23:01:33.516Z,2.47
2018-08-20T23:04:02.163Z,6.20
2018-08-20T23:06:30.997Z,2.80
2018-08-20T23:08:59.709Z,4.67
2018-08-20T23:11:40.310Z,3.30
2018-08-20T23:14:10.735Z,2.50
2018-08-20T23:16:39.565Z,8.13
2018-08-20T23:19:08.857Z,3.60
2018-08-20T23:21:45.777Z,2.77
2018-08-20T23:24:15.131Z,8.53
2018-08-20T23:26:43.913Z,2.90
2018-08-20T23:29:12.704Z,2.47
2018-08-20T23:31:41.616Z,2.97
2018-08-20T23:34:12.386Z,4.23
2018-08-20T23:36:41.346Z,2.80
2018-08-20T23:39:12.468Z,3.23
2018-08-20T23:41:41.439Z,2.57
2018-08-20T23:44:10.235Z,4.83
2018-08-20T23:46:44.181Z,3.10
2018-08-20T23:49:12.775Z,3.60
2018-08-20T23:51:41.486Z,2.93
2018-08-20T23:54:11.097Z,9.37
2018-08-20T23:56:39.816Z,3.47
2018-08-20T23:59:08.552Z,8.20
